Buoy 46930

sailwx.info

Track history (hours):
 
Tides and Currents Weather Stations Pressure Air Temp Water Temp Dewpoint Dewpoint Depression Visibility Wind Speed Wind Dir Waves Ship Positions

Drifting buoy 46930

Last reported at 2017-Jul-26 21:00 UTC. Time now 2017-Jul-27 00:35 UTC.
Position N 17°58' E 158°29'.

Date/timePositionNaut miles runAvg speedWind from/ knotsBaromVisibWave heightAir tempDewpointWater temp
2017-Jul-26 21:00N 17°58' E 158°29'1 0.6
2017-Jul-26 20:00N 17°58' E 158°30'1 0.6
2017-Jul-26 19:00N 17°58' E 158°31'1 0.8
2017-Jul-26 18:00N 17°58' E 158°31'3 0.4
2017-Jul-26 11:00N 17°59' E 158°34'1 0.4
2017-Jul-26 09:00N 17°59' E 158°35'1 0.6
2017-Jul-26 08:00N 18°00' E 158°35'1 0.6
2017-Jul-26 07:00N 17°59' E 158°35'1 0.6
2017-Jul-26 06:00N 17°59' E 158°34'0 0.0
2017-Jul-26 05:00N 17°59' E 158°34'2 0.4
2017-Jul-25 23:00N 17°58' E 158°36'1 0.4
2017-Jul-25 21:00N 17°57' E 158°37'0 0.0
2017-Jul-25 19:00N 17°57' E 158°37'2 0.3
2017-Jul-25 11:00N 17°56' E 158°38'0 0.0
2017-Jul-25 09:00N 17°56' E 158°38'0 0.0
2017-Jul-25 08:00N 17°56' E 158°38'1 0.6
2017-Jul-25 07:00N 17°56' E 158°38'1 0.6
2017-Jul-25 06:00N 17°56' E 158°38'4 0.5
2017-Jul-24 22:00N 17°53' E 158°41'1 0.6
2017-Jul-24 21:00N 17°53' E 158°41'1 0.6
2017-Jul-24 19:00N 17°53' E 158°43'0 0.0
2017-Jul-24 11:00N 17°53' E 158°43'0 0.0
2017-Jul-24 10:00N 17°53' E 158°43'0 0.0
2017-Jul-24 08:00N 17°53' E 158°43'1 0.8
2017-Jul-24 07:00N 17°53' E 158°42'0 0.0
2017-Jul-24 06:00N 17°53' E 158°42'4 0.6
2017-Jul-23 23:00N 17°49' E 158°43'0 0.0
2017-Jul-23 22:00N 17°49' E 158°43'1 1.3
2017-Jul-23 21:00N 17°48' E 158°44'1 0.8
2017-Jul-23 20:00N 17°47' E 158°45'0 0.0
2017-Jul-23 19:00N 17°47' E 158°45'1 1.1
2017-Jul-23 18:00N 17°47' E 158°46'1 0.2
2017-Jul-23 11:00N 17°46' E 158°46'1 0.6
2017-Jul-23 10:00N 17°46' E 158°47'0 0.0
2017-Jul-23 09:00N 17°46' E 158°47'1 0.6
2017-Jul-23 08:00N 17°46' E 158°47'1 0.6
2017-Jul-23 07:00N 17°46' E 158°47'0 0.0
2017-Jul-23 06:00N 17°46' E 158°47'1 0.6
2017-Jul-23 05:00N 17°45' E 158°47'4 0.4
2017-Jul-22 20:00N 17°41' E 158°47'0 0.0
2017-Jul-22 19:00N 17°41' E 158°47'1 1.2
2017-Jul-22 18:00N 17°40' E 158°47'1 0.8
2017-Jul-22 17:00N 17°41' E 158°47'4 0.5
2017-Jul-22 10:00N 17°37' E 158°46'1 0.6
2017-Jul-22 09:00N 17°37' E 158°47'1 0.6
2017-Jul-22 08:00N 17°37' E 158°46'1 0.6
2017-Jul-22 07:00N 17°37' E 158°47'0 0.0
2017-Jul-22 06:00N 17°37' E 158°47'3 0.5
2017-Jul-21 23:00N 17°34' E 158°48'1 0.2
2017-Jul-21 20:00N 17°34' E 158°48'0 0.0
2017-Jul-21 19:00N 17°34' E 158°48'0 0.0
2017-Jul-21 18:00N 17°34' E 158°48'0 0.0
2017-Jul-21 17:00N 17°34' E 158°48'1 0.2
2017-Jul-21 11:00N 17°32' E 158°48'0 0.0
2017-Jul-21 09:00N 17°32' E 158°48'0 0.0
2017-Jul-21 08:00N 17°32' E 158°48'0 0.0
2017-Jul-21 07:00N 17°32' E 158°48'1 0.6
2017-Jul-21 06:00N 17°32' E 158°48'1 0.6
2017-Jul-21 05:00N 17°31' E 158°48'1 0.8
2017-Jul-21 04:00N 17°31' E 158°49'0 0.0
2017-Jul-21 02:00N 17°31' E 158°49'1 0.3
2017-Jul-20 23:00N 17°30' E 158°49'0 0.0
2017-Jul-20 20:00N 17°30' E 158°49'0 0.0
2017-Jul-20 19:00N 17°30' E 158°49'2 0.2
2017-Jul-20 11:00N 17°28' E 158°50'1 0.3
2017-Jul-20 09:00N 17°29' E 158°50'1 0.3
2017-Jul-20 07:00N 17°28' E 158°50'1 1.1
2017-Jul-20 06:00N 17°28' E 158°51'2 0.4
2017-Jul-19 23:00N 17°26' E 158°53'0 0.0
2017-Jul-19 22:00N 17°26' E 158°53'1 0.6
2017-Jul-19 21:00N 17°26' E 158°52'0 0.0
2017-Jul-19 20:00N 17°26' E 158°52'1 0.3
2017-Jul-19 18:00N 17°26' E 158°52'2 0.3
2017-Jul-19 11:00N 17°25' E 158°52'1 0.6
2017-Jul-19 10:00N 17°25' E 158°52'0 0.0
2017-Jul-19 09:00N 17°25' E 158°52'0 0.0
2017-Jul-19 08:00N 17°25' E 158°52'1 0.8
2017-Jul-19 07:00N 17°24' E 158°53'0 0.0
2017-Jul-19 06:00N 17°24' E 158°53'1 0.4
2017-Jul-19 04:00N 17°23' E 158°53'2 0.3
2017-Jul-18 22:00N 17°23' E 158°55'1 0.1
2017-Jul-18 11:00N 17°22' E 158°55'1 0.8
2017-Jul-18 10:00N 17°23' E 158°55'1 0.6
2017-Jul-18 09:00N 17°23' E 158°55'0 0.0
2017-Jul-18 08:00N 17°23' E 158°55'0 0.0
2017-Jul-18 06:00N 17°23' E 158°55'1 0.1
2017-Jul-17 21:00N 17°22' E 158°56'1 0.6
2017-Jul-17 19:00N 17°23' E 158°55'0 0.0
2017-Jul-17 18:00N 17°23' E 158°55'2 0.3
2017-Jul-17 11:00N 17°21' E 158°55'1 0.4
2017-Jul-17 08:00N 17°21' E 158°56'1 0.6
2017-Jul-17 07:00N 17°22' E 158°56'1 0.1
2017-Jul-16 21:00N 17°23' E 158°57'  
Track history (hours):
 
Tides and Currents Weather Stations Pressure Air Temp Water Temp Dewpoint Dewpoint Depression Visibility Wind Speed Wind Dir Waves Ship Positions

Drifting buoy 46930

Last reported at 2017-Jul-26 21:00 UTC. Time now 2017-Jul-27 00:35 UTC.
Position N 17°58' E 158°29'.

Date/timePositionNaut miles runAvg speedWind from/ knotsBaromVisibWave heightAir tempDewpointWater temp
2017-Jul-26 21:00N 17°58' E 158°29'1 0.6
2017-Jul-26 20:00N 17°58' E 158°30'1 0.6
2017-Jul-26 19:00N 17°58' E 158°31'1 0.8
2017-Jul-26 18:00N 17°58' E 158°31'3 0.4
2017-Jul-26 11:00N 17°59' E 158°34'1 0.4
2017-Jul-26 09:00N 17°59' E 158°35'1 0.6
2017-Jul-26 08:00N 18°00' E 158°35'1 0.6
2017-Jul-26 07:00N 17°59' E 158°35'1 0.6
2017-Jul-26 06:00N 17°59' E 158°34'0 0.0
2017-Jul-26 05:00N 17°59' E 158°34'2 0.4
2017-Jul-25 23:00N 17°58' E 158°36'1 0.4
2017-Jul-25 21:00N 17°57' E 158°37'0 0.0
2017-Jul-25 19:00N 17°57' E 158°37'2 0.3
2017-Jul-25 11:00N 17°56' E 158°38'0 0.0
2017-Jul-25 09:00N 17°56' E 158°38'0 0.0
2017-Jul-25 08:00N 17°56' E 158°38'1 0.6
2017-Jul-25 07:00N 17°56' E 158°38'1 0.6
2017-Jul-25 06:00N 17°56' E 158°38'4 0.5
2017-Jul-24 22:00N 17°53' E 158°41'1 0.6
2017-Jul-24 21:00N 17°53' E 158°41'1 0.6
2017-Jul-24 19:00N 17°53' E 158°43'0 0.0
2017-Jul-24 11:00N 17°53' E 158°43'0 0.0
2017-Jul-24 10:00N 17°53' E 158°43'0 0.0
2017-Jul-24 08:00N 17°53' E 158°43'1 0.8
2017-Jul-24 07:00N 17°53' E 158°42'0 0.0
2017-Jul-24 06:00N 17°53' E 158°42'4 0.6
2017-Jul-23 23:00N 17°49' E 158°43'0 0.0
2017-Jul-23 22:00N 17°49' E 158°43'1 1.3
2017-Jul-23 21:00N 17°48' E 158°44'1 0.8
2017-Jul-23 20:00N 17°47' E 158°45'0 0.0
2017-Jul-23 19:00N 17°47' E 158°45'1 1.1
2017-Jul-23 18:00N 17°47' E 158°46'1 0.2
2017-Jul-23 11:00N 17°46' E 158°46'1 0.6
2017-Jul-23 10:00N 17°46' E 158°47'0 0.0
2017-Jul-23 09:00N 17°46' E 158°47'1 0.6
2017-Jul-23 08:00N 17°46' E 158°47'1 0.6
2017-Jul-23 07:00N 17°46' E 158°47'0 0.0
2017-Jul-23 06:00N 17°46' E 158°47'1 0.6
2017-Jul-23 05:00N 17°45' E 158°47'4 0.4
2017-Jul-22 20:00N 17°41' E 158°47'0 0.0
2017-Jul-22 19:00N 17°41' E 158°47'1 1.2
2017-Jul-22 18:00N 17°40' E 158°47'1 0.8
2017-Jul-22 17:00N 17°41' E 158°47'4 0.5
2017-Jul-22 10:00N 17°37' E 158°46'1 0.6
2017-Jul-22 09:00N 17°37' E 158°47'1 0.6
2017-Jul-22 08:00N 17°37' E 158°46'1 0.6
2017-Jul-22 07:00N 17°37' E 158°47'0 0.0
2017-Jul-22 06:00N 17°37' E 158°47'3 0.5
2017-Jul-21 23:00N 17°34' E 158°48'1 0.2
2017-Jul-21 20:00N 17°34' E 158°48'0 0.0
2017-Jul-21 19:00N 17°34' E 158°48'0 0.0
2017-Jul-21 18:00N 17°34' E 158°48'0 0.0
2017-Jul-21 17:00N 17°34' E 158°48'1 0.2
2017-Jul-21 11:00N 17°32' E 158°48'0 0.0
2017-Jul-21 09:00N 17°32' E 158°48'0 0.0
2017-Jul-21 08:00N 17°32' E 158°48'0 0.0
2017-Jul-21 07:00N 17°32' E 158°48'1 0.6
2017-Jul-21 06:00N 17°32' E 158°48'1 0.6
2017-Jul-21 05:00N 17°31' E 158°48'1 0.8
2017-Jul-21 04:00N 17°31' E 158°49'0 0.0
2017-Jul-21 02:00N 17°31' E 158°49'1 0.3
2017-Jul-20 23:00N 17°30' E 158°49'0 0.0
2017-Jul-20 20:00N 17°30' E 158°49'0 0.0
2017-Jul-20 19:00N 17°30' E 158°49'2 0.2
2017-Jul-20 11:00N 17°28' E 158°50'1 0.3
2017-Jul-20 09:00N 17°29' E 158°50'1 0.3
2017-Jul-20 07:00N 17°28' E 158°50'1 1.1
2017-Jul-20 06:00N 17°28' E 158°51'2 0.4
2017-Jul-19 23:00N 17°26' E 158°53'0 0.0
2017-Jul-19 22:00N 17°26' E 158°53'1 0.6
2017-Jul-19 21:00N 17°26' E 158°52'0 0.0
2017-Jul-19 20:00N 17°26' E 158°52'1 0.3
2017-Jul-19 18:00N 17°26' E 158°52'2 0.3
2017-Jul-19 11:00N 17°25' E 158°52'1 0.6
2017-Jul-19 10:00N 17°25' E 158°52'0 0.0
2017-Jul-19 09:00N 17°25' E 158°52'0 0.0
2017-Jul-19 08:00N 17°25' E 158°52'1 0.8
2017-Jul-19 07:00N 17°24' E 158°53'0 0.0
2017-Jul-19 06:00N 17°24' E 158°53'1 0.4
2017-Jul-19 04:00N 17°23' E 158°53'2 0.3
2017-Jul-18 22:00N 17°23' E 158°55'1 0.1
2017-Jul-18 11:00N 17°22' E 158°55'1 0.8
2017-Jul-18 10:00N 17°23' E 158°55'1 0.6
2017-Jul-18 09:00N 17°23' E 158°55'0 0.0
2017-Jul-18 08:00N 17°23' E 158°55'0 0.0
2017-Jul-18 06:00N 17°23' E 158°55'1 0.1
2017-Jul-17 21:00N 17°22' E 158°56'1 0.6
2017-Jul-17 19:00N 17°23' E 158°55'0 0.0
2017-Jul-17 18:00N 17°23' E 158°55'2 0.3
2017-Jul-17 11:00N 17°21' E 158°55'1 0.4
2017-Jul-17 08:00N 17°21' E 158°56'1 0.6
2017-Jul-17 07:00N 17°22' E 158°56'1 0.1
2017-Jul-16 21:00N 17°23' E 158°57'  

Dump ship's entire track history